Time,TemperatureF,DewpointF,PressureIn,WindDirection,WindDirectionDegrees,WindSpeedMPH,WindSpeedGustMPH,Humidity,HourlyPrecipIn,Conditions,Clouds,dailyrainin,SoftwareType,DateUTC
2013-09-04 00:01:00,67.8,54.8,-100.00,North,-999,-999.0,-999.0,63,-99.99,,---,-99.99,VWS V14.01,2013-09-04 07:01:00,
2013-09-04 00:06:00,67.8,54.8,-100.00,North,-999,-999.0,-999.0,63,-99.99,,---,-99.99,VWS V14.01,2013-09-04 07:06:00,
2013-09-04 00:11:00,67.6,54.6,-100.00,North,-999,-999.0,-999.0,63,-99.99,,---,-99.99,VWS V14.01,2013-09-04 07:11:00,
2013-09-04 00:16:00,67.6,55.0,-100.00,North,-999,-999.0,-999.0,64,-99.99,,---,-99.99,VWS V14.01,2013-09-04 07:16:00,
2013-09-04 00:21:00,67.8,55.2,-100.00,North,-999,-999.0,-999.0,64,-99.99,,---,-99.99,VWS V14.01,2013-09-04 07:21:00,
2013-09-04 00:26:00,67.8,55.2,-100.00,North,-999,-999.0,-999.0,64,-99.99,,---,-99.99,VWS V14.01,2013-09-04 07:26:00,
2013-09-04 00:31:00,67.8,55.2,-100.00,North,-999,-999.0,-999.0,64,-99.99,,---,-99.99,VWS V14.01,2013-09-04 07:31:00,
2013-09-04 00:36:00,67.8,55.2,-100.00,North,-999,-999.0,-999.0,64,-99.99,,---,-99.99,VWS V14.01,2013-09-04 07:36:00,
2013-09-04 00:41:00,67.8,55.2,-100.00,North,-999,-999.0,-999.0,64,-99.99,,---,-99.99,VWS V14.01,2013-09-04 07:41:00,
2013-09-04 00:46:00,67.8,55.2,-100.00,North,-999,-999.0,-999.0,64,-99.99,,---,-99.99,VWS V14.01,2013-09-04 07:46:00,
2013-09-04 00:51:00,67.6,55.0,-100.00,North,-999,-999.0,-999.0,64,-99.99,,---,-99.99,VWS V14.01,2013-09-04 07:51:00,
2013-09-04 00:56:00,67.6,55.0,-100.00,North,-999,-999.0,-999.0,64,-99.99,,---,-99.99,VWS V14.01,2013-09-04 07:56:00,
2013-09-04 01:01:00,67.6,55.0,-100.00,North,-999,-999.0,-999.0,64,-99.99,,---,-99.99,VWS V14.01,2013-09-04 08:01:00,
2013-09-04 01:11:00,67.5,54.9,-100.00,North,-999,-999.0,-999.0,64,-99.99,,---,-99.99,VWS V14.01,2013-09-04 08:11:00,
2013-09-04 01:16:00,67.5,54.9,-100.00,North,-999,-999.0,-999.0,64,-99.99,,---,-99.99,VWS V14.01,2013-09-04 08:16:00,
2013-09-04 01:21:00,67.3,54.7,-100.00,North,-999,-999.0,-999.0,64,-99.99,,---,-99.99,VWS V14.01,2013-09-04 08:21:00,
2013-09-04 01:26:00,67.3,54.7,-100.00,North,-999,-999.0,-999.0,64,-99.99,,---,-99.99,VWS V14.01,2013-09-04 08:26:00,
2013-09-04 01:31:00,67.1,54.5,-100.00,North,-999,-999.0,-999.0,64,-99.99,,---,-99.99,VWS V14.01,2013-09-04 08:31:00,
2013-09-04 01:36:00,66.9,54.4,-100.00,North,-999,-999.0,-999.0,64,-99.99,,---,-99.99,VWS V14.01,2013-09-04 08:36:00,
2013-09-04 01:41:00,66.9,54.4,-100.00,North,-999,-999.0,-999.0,64,-99.99,,---,-99.99,VWS V14.01,2013-09-04 08:41:00,
2013-09-04 01:46:00,66.7,54.2,-100.00,North,-999,-999.0,-999.0,64,-99.99,,---,-99.99,VWS V14.01,2013-09-04 08:46:00,
2013-09-04 01:51:00,66.7,54.2,-100.00,North,-999,-999.0,-999.0,64,-99.99,,---,-99.99,VWS V14.01,2013-09-04 08:51:00,
2013-09-04 01:56:00,66.6,54.0,-100.00,North,-999,-999.0,-999.0,64,-99.99,,---,-99.99,VWS V14.01,2013-09-04 08:56:00,
2013-09-04 02:01:00,66.6,54.4,-100.00,North,-999,-999.0,-999.0,65,-99.99,,---,-99.99,VWS V14.01,2013-09-04 09:01:00,
2013-09-04 02:11:00,66.6,54.4,-100.00,North,-999,-999.0,-999.0,65,-99.99,,---,-99.99,VWS V14.01,2013-09-04 09:11:00,
2013-09-04 02:16:00,66.4,54.3,-100.00,North,-999,-999.0,-999.0,65,-99.99,,---,-99.99,VWS V14.01,2013-09-04 09:16:00,
2013-09-04 02:21:00,66.4,54.3,-100.00,North,-999,-999.0,-999.0,65,-99.99,,---,-99.99,VWS V14.01,2013-09-04 09:21:00,
2013-09-04 02:26:00,66.2,54.1,-100.00,North,-999,-999.0,-999.0,65,-99.99,,---,-99.99,VWS V14.01,2013-09-04 09:26:00,
2013-09-04 02:31:00,66.2,54.1,-100.00,North,-999,-999.0,-999.0,65,-99.99,,---,-99.99,VWS V14.01,2013-09-04 09:31:00,
2013-09-04 02:36:00,66.0,53.9,-100.00,North,-999,-999.0,-999.0,65,-99.99,,---,-99.99,VWS V14.01,2013-09-04 09:36:00,
2013-09-04 02:41:00,66.0,54.3,-100.00,North,-999,-999.0,-999.0,66,-99.99,,---,-99.99,VWS V14.01,2013-09-04 09:41:00,
2013-09-04 02:46:00,65.8,54.2,-100.00,North,-999,-999.0,-999.0,66,-99.99,,---,-99.99,VWS V14.01,2013-09-04 09:46:00,
2013-09-04 02:51:00,65.8,54.2,-100.00,North,-999,-999.0,-999.0,66,-99.99,,---,-99.99,VWS V14.01,2013-09-04 09:51:00,
2013-09-04 02:56:00,65.8,54.2,-100.00,North,-999,-999.0,-999.0,66,-99.99,,---,-99.99,VWS V14.01,2013-09-04 09:56:00,
2013-09-04 03:01:00,65.8,54.2,-100.00,North,-999,-999.0,-999.0,66,-99.99,,---,-99.99,VWS V14.01,2013-09-04 10:01:00,
2013-09-04 03:11:00,65.5,53.8,-100.00,North,-999,-999.0,-999.0,66,-99.99,,---,-99.99,VWS V14.01,2013-09-04 10:11:00,
2013-09-04 03:16:00,65.5,53.8,-100.00,North,-999,-999.0,-999.0,66,-99.99,,---,-99.99,VWS V14.01,2013-09-04 10:16:00,
2013-09-04 03:21:00,65.3,53.7,-100.00,North,-999,-999.0,-999.0,66,-99.99,,---,-99.99,VWS V14.01,2013-09-04 10:21:00,
2013-09-04 03:26:00,65.3,53.7,-100.00,North,-999,-999.0,-999.0,66,-99.99,,---,-99.99,VWS V14.01,2013-09-04 10:26:00,
2013-09-04 03:31:00,65.3,53.7,-100.00,North,-999,-999.0,-999.0,66,-99.99,,---,-99.99,VWS V14.01,2013-09-04 10:31:00,
2013-09-04 03:36:00,65.3,54.1,-100.00,North,-999,-999.0,-999.0,67,-99.99,,---,-99.99,VWS V14.01,2013-09-04 10:36:00,
2013-09-04 03:41:00,65.3,54.1,-100.00,North,-999,-999.0,-999.0,67,-99.99,,---,-99.99,VWS V14.01,2013-09-04 10:41:00,
2013-09-04 03:46:00,65.3,54.1,-100.00,North,-999,-999.0,-999.0,67,-99.99,,---,-99.99,VWS V14.01,2013-09-04 10:46:00,
2013-09-04 03:51:00,65.1,53.9,-100.00,North,-999,-999.0,-999.0,67,-99.99,,---,-99.99,VWS V14.01,2013-09-04 10:51:00,
2013-09-04 03:56:00,65.3,54.1,-100.00,North,-999,-999.0,-999.0,67,-99.99,,---,-99.99,VWS V14.01,2013-09-04 10:56:00,
2013-09-04 04:01:00,65.3,54.1,-100.00,North,-999,-999.0,-999.0,67,-99.99,,---,-99.99,VWS V14.01,2013-09-04 11:01:00,
2013-09-04 04:06:00,65.3,54.1,-100.00,North,-999,-999.0,-999.0,67,-99.99,,---,-99.99,VWS V14.01,2013-09-04 11:06:00,
2013-09-04 04:11:00,65.5,54.2,-100.00,North,-999,-999.0,-999.0,67,-99.99,,---,-99.99,VWS V14.01,2013-09-04 11:11:00,
2013-09-04 04:16:00,65.5,54.2,-100.00,North,-999,-999.0,-999.0,67,-99.99,,---,-99.99,VWS V14.01,2013-09-04 11:16:00,
2013-09-04 04:21:00,65.3,54.1,-100.00,North,-999,-999.0,-999.0,67,-99.99,,---,-99.99,VWS V14.01,2013-09-04 11:21:00,
2013-09-04 04:26:00,65.3,54.1,-100.00,North,-999,-999.0,-999.0,67,-99.99,,---,-99.99,VWS V14.01,2013-09-04 11:26:00,
2013-09-04 04:31:00,65.1,53.9,-100.00,North,-999,-999.0,-999.0,67,-99.99,,---,-99.99,VWS V14.01,2013-09-04 11:31:00,
2013-09-04 04:36:00,65.1,53.9,-100.00,North,-999,-999.0,-999.0,67,-99.99,,---,-99.99,VWS V14.01,2013-09-04 11:36:00,
2013-09-04 04:41:00,65.1,53.9,-100.00,North,-999,-999.0,-999.0,67,-99.99,,---,-99.99,VWS V14.01,2013-09-04 11:41:00,
2013-09-04 04:46:00,65.1,53.9,-100.00,North,-999,-999.0,-999.0,67,-99.99,,---,-99.99,VWS V14.01,2013-09-04 11:46:00,
2013-09-04 04:51:00,64.9,53.7,-100.00,North,-999,-999.0,-999.0,67,-99.99,,---,-99.99,VWS V14.01,2013-09-04 11:51:00,
2013-09-04 04:56:00,64.9,53.7,-100.00,North,-999,-999.0,-999.0,67,-99.99,,---,-99.99,VWS V14.01,2013-09-04 11:56:00,
2013-09-04 05:01:00,64.8,54.0,-100.00,North,-999,-999.0,-999.0,68,-99.99,,---,-99.99,VWS V14.01,2013-09-04 12:01:00,
2013-09-04 05:06:00,64.8,54.0,-100.00,North,-999,-999.0,-999.0,68,-99.99,,---,-99.99,VWS V14.01,2013-09-04 12:06:00,
2013-09-04 05:11:00,64.8,54.0,-100.00,North,-999,-999.0,-999.0,68,-99.99,,---,-99.99,VWS V14.01,2013-09-04 12:11:00,
2013-09-04 05:16:00,64.8,54.0,-100.00,North,-999,-999.0,-999.0,68,-99.99,,---,-99.99,VWS V14.01,2013-09-04 12:16:00,
2013-09-04 05:21:00,64.6,53.8,-100.00,North,-999,-999.0,-999.0,68,-99.99,,---,-99.99,VWS V14.01,2013-09-04 12:21:00,
2013-09-04 05:26:00,64.6,53.8,-100.00,North,-999,-999.0,-999.0,68,-99.99,,---,-99.99,VWS V14.01,2013-09-04 12:26:00,
2013-09-04 05:31:00,64.6,53.8,-100.00,North,-999,-999.0,-999.0,68,-99.99,,---,-99.99,VWS V14.01,2013-09-04 12:31:00,
2013-09-04 05:36:00,64.4,53.6,-100.00,North,-999,-999.0,-999.0,68,-99.99,,---,-99.99,VWS V14.01,2013-09-04 12:36:00,
2013-09-04 05:41:00,64.4,53.6,-100.00,North,-999,-999.0,-999.0,68,-99.99,,---,-99.99,VWS V14.01,2013-09-04 12:41:00,
2013-09-04 05:46:00,64.4,53.6,-100.00,North,-999,-999.0,-999.0,68,-99.99,,---,-99.99,VWS V14.01,2013-09-04 12:46:00,
2013-09-04 05:51:00,64.4,53.6,-100.00,North,-999,-999.0,-999.0,68,-99.99,,---,-99.99,VWS V14.01,2013-09-04 12:51:00,
2013-09-04 05:56:00,64.4,53.6,-100.00,North,-999,-999.0,-999.0,68,-99.99,,---,-99.99,VWS V14.01,2013-09-04 12:56:00,
2013-09-04 06:01:00,64.4,53.6,-100.00,North,-999,-999.0,-999.0,68,-99.99,,---,-99.99,VWS V14.01,2013-09-04 13:01:00,
2013-09-04 06:06:00,64.2,53.8,-100.00,North,-999,-999.0,-999.0,69,-99.99,,---,-99.99,VWS V14.01,2013-09-04 13:06:00,
2013-09-04 06:11:00,64.2,53.8,-100.00,North,-999,-999.0,-999.0,69,-99.99,,---,-99.99,VWS V14.01,2013-09-04 13:11:00,
2013-09-04 06:16:00,64.2,53.8,-100.00,North,-999,-999.0,-999.0,69,-99.99,,---,-99.99,VWS V14.01,2013-09-04 13:16:00,
2013-09-04 06:21:00,64.2,53.8,-100.00,North,-999,-999.0,-999.0,69,-99.99,,---,-99.99,VWS V14.01,2013-09-04 13:21:00,
2013-09-04 06:26:00,64.2,53.8,-100.00,North,-999,-999.0,-999.0,69,-99.99,,---,-99.99,VWS V14.01,2013-09-04 13:26:00,
2013-09-04 06:31:00,64.0,53.7,-100.00,North,-999,-999.0,-999.0,69,-99.99,,---,-99.99,VWS V14.01,2013-09-04 13:31:00,
2013-09-04 06:36:00,64.0,53.7,-100.00,North,-999,-999.0,-999.0,69,-99.99,,---,-99.99,VWS V14.01,2013-09-04 13:36:00,
2013-09-04 06:41:00,64.0,53.7,-100.00,North,-999,-999.0,-999.0,69,-99.99,,---,-99.99,VWS V14.01,2013-09-04 13:41:00,
2013-09-04 06:46:00,64.0,53.7,-100.00,North,-999,-999.0,-999.0,69,-99.99,,---,-99.99,VWS V14.01,2013-09-04 13:46:00,
2013-09-04 06:51:00,63.9,53.5,-100.00,North,-999,-999.0,-999.0,69,-99.99,,---,-99.99,VWS V14.01,2013-09-04 13:51:00,
2013-09-04 06:56:00,63.9,53.5,-100.00,North,-999,-999.0,-999.0,69,-99.99,,---,-99.99,VWS V14.01,2013-09-04 13:56:00,
2013-09-04 07:01:00,63.9,53.5,-100.00,North,-999,-999.0,-999.0,69,-99.99,,---,-99.99,VWS V14.01,2013-09-04 14:01:00,
2013-09-04 07:06:00,63.9,53.5,-100.00,North,-999,-999.0,-999.0,69,-99.99,,---,-99.99,VWS V14.01,2013-09-04 14:06:00,
2013-09-04 07:11:00,63.9,53.5,-100.00,North,-999,-999.0,-999.0,69,-99.99,,---,-99.99,VWS V14.01,2013-09-04 14:11:00,
2013-09-04 07:16:00,63.7,53.3,-100.00,North,-999,-999.0,-999.0,69,-99.99,,---,-99.99,VWS V14.01,2013-09-04 14:16:00,
2013-09-04 07:21:00,63.7,53.7,-100.00,North,-999,-999.0,-999.0,70,-99.99,,---,-99.99,VWS V14.01,2013-09-04 14:21:00,
2013-09-04 07:26:00,63.5,53.5,-100.00,North,-999,-999.0,-999.0,70,-99.99,,---,-99.99,VWS V14.01,2013-09-04 14:26:00,
2013-09-04 07:32:00,63.7,53.7,-100.00,North,-999,-999.0,-999.0,70,-99.99,,---,-99.99,VWS V14.01,2013-09-04 14:32:00,
2013-09-04 07:38:00,63.7,53.7,-100.00,North,-999,-999.0,-999.0,70,-99.99,,---,-99.99,VWS V14.01,2013-09-04 14:38:00,
2013-09-04 07:44:00,63.9,53.9,-100.00,North,-999,-999.0,-999.0,70,-99.99,,---,-99.99,VWS V14.01,2013-09-04 14:44:00,
2013-09-04 07:50:00,64.0,54.1,-100.00,North,-999,-999.0,-999.0,70,-99.99,,---,-99.99,VWS V14.01,2013-09-04 14:50:00,
2013-09-04 07:55:00,64.2,54.2,-100.00,North,-999,-999.0,-999.0,70,-99.99,,---,-99.99,VWS V14.01,2013-09-04 14:55:00,
2013-09-04 08:00:00,64.8,54.8,-100.00,North,-999,-999.0,-999.0,70,-99.99,,---,-99.99,VWS V14.01,2013-09-04 15:00:00,
2013-09-04 08:06:00,64.9,54.9,-100.00,North,-999,-999.0,-999.0,70,-99.99,,---,-99.99,VWS V14.01,2013-09-04 15:06:00,
2013-09-04 08:11:00,65.5,55.5,-100.00,North,-999,-999.0,-999.0,70,-99.99,,---,-99.99,VWS V14.01,2013-09-04 15:11:00,
2013-09-04 08:16:00,65.8,55.4,-100.00,North,-999,-999.0,-999.0,69,-99.99,,---,-99.99,VWS V14.01,2013-09-04 15:16:00,
2013-09-04 08:21:00,66.2,55.7,-100.00,North,-999,-999.0,-999.0,69,-99.99,,---,-99.99,VWS V14.01,2013-09-04 15:21:00,
2013-09-04 08:27:00,66.2,55.7,-100.00,North,-999,-999.0,-999.0,69,-99.99,,---,-99.99,VWS V14.01,2013-09-04 15:27:00,
2013-09-04 08:32:00,67.3,56.4,-100.00,North,-999,-999.0,-999.0,68,-99.99,,---,-99.99,VWS V14.01,2013-09-04 15:32:00,
2013-09-04 08:37:00,67.3,56.4,-100.00,North,-999,-999.0,-999.0,68,-99.99,,---,-99.99,VWS V14.01,2013-09-04 15:37:00,
2013-09-04 08:42:00,67.3,56.4,-100.00,North,-999,-999.0,-999.0,68,-99.99,,---,-99.99,VWS V14.01,2013-09-04 15:42:00,
2013-09-04 08:47:00,67.3,56.4,-100.00,North,-999,-999.0,-999.0,68,-99.99,,---,-99.99,VWS V14.01,2013-09-04 15:47:00,
2013-09-04 08:52:00,67.3,56.4,-100.00,North,-999,-999.0,-999.0,68,-99.99,,---,-99.99,VWS V14.01,2013-09-04 15:52:00,
2013-09-04 08:57:00,68.9,57.1,-100.00,North,-999,-999.0,-999.0,66,-99.99,,---,-99.99,VWS V14.01,2013-09-04 15:57:00,
2013-09-04 09:02:00,68.9,57.1,-100.00,North,-999,-999.0,-999.0,66,-99.99,,---,-99.99,VWS V14.01,2013-09-04 16:02:00,
2013-09-04 10:08:00,75.0,59.7,-100.00,North,-999,-999.0,-999.0,59,-99.99,,---,-99.99,VWS V14.01,2013-09-04 17:08:00,
2013-09-04 10:13:00,75.4,60.1,-100.00,North,-999,-999.0,-999.0,59,-99.99,,---,-99.99,VWS V14.01,2013-09-04 17:13:00,
2013-09-04 10:18:00,75.6,59.8,-100.00,North,-999,-999.0,-999.0,58,-99.99,,---,-99.99,VWS V14.01,2013-09-04 17:18:00,
2013-09-04 10:23:00,75.7,59.9,-100.00,North,-999,-999.0,-999.0,58,-99.99,,---,-99.99,VWS V14.01,2013-09-04 17:23:00,
2013-09-04 10:28:00,75.9,59.6,-100.00,North,-999,-999.0,-999.0,57,-99.99,,---,-99.99,VWS V14.01,2013-09-04 17:28:00,
2013-09-04 10:33:00,76.3,60.0,-100.00,North,-999,-999.0,-999.0,57,-99.99,,---,-99.99,VWS V14.01,2013-09-04 17:33:00,
2013-09-04 10:38:00,76.8,60.0,-100.00,North,-999,-999.0,-999.0,56,-99.99,,---,-99.99,VWS V14.01,2013-09-04 17:38:00,
2013-09-04 10:43:00,77.0,59.6,-100.00,North,-999,-999.0,-999.0,55,-99.99,,---,-99.99,VWS V14.01,2013-09-04 17:43:00,
2013-09-04 10:48:00,77.0,59.6,-100.00,North,-999,-999.0,-999.0,55,-99.99,,---,-99.99,VWS V14.01,2013-09-04 17:48:00,
2013-09-04 10:53:00,77.0,59.6,-100.00,North,-999,-999.0,-999.0,55,-99.99,,---,-99.99,VWS V14.01,2013-09-04 17:53:00,
2013-09-04 10:58:00,77.4,59.4,-100.00,North,-999,-999.0,-999.0,54,-99.99,,---,-99.99,VWS V14.01,2013-09-04 17:58:00,
2013-09-04 11:03:00,77.7,59.8,-100.00,North,-999,-999.0,-999.0,54,-99.99,,---,-99.99,VWS V14.01,2013-09-04 18:03:00,
2013-09-04 11:08:00,78.1,60.1,-100.00,North,-999,-999.0,-999.0,54,-99.99,,---,-99.99,VWS V14.01,2013-09-04 18:08:00,
2013-09-04 11:13:00,78.4,59.9,-100.00,North,-999,-999.0,-999.0,53,-99.99,,---,-99.99,VWS V14.01,2013-09-04 18:13:00,
2013-09-04 11:18:00,78.6,60.1,-100.00,North,-999,-999.0,-999.0,53,-99.99,,---,-99.99,VWS V14.01,2013-09-04 18:18:00,
2013-09-04 11:23:00,78.6,59.5,-100.00,North,-999,-999.0,-999.0,52,-99.99,,---,-99.99,VWS V14.01,2013-09-04 18:23:00,
2013-09-04 11:28:00,78.8,59.2,-100.00,North,-999,-999.0,-999.0,51,-99.99,,---,-99.99,VWS V14.01,2013-09-04 18:28:00,
2013-09-04 11:33:00,79.0,59.3,-100.00,North,-999,-999.0,-999.0,51,-99.99,,---,-99.99,VWS V14.01,2013-09-04 18:33:00,
2013-09-04 11:38:00,79.2,59.5,-100.00,North,-999,-999.0,-999.0,51,-99.99,,---,-99.99,VWS V14.01,2013-09-04 18:38:00,
2013-09-04 11:43:00,79.2,58.9,-100.00,North,-999,-999.0,-999.0,50,-99.99,,---,-99.99,VWS V14.01,2013-09-04 18:43:00,
2013-09-04 11:48:00,79.2,58.4,-100.00,North,-999,-999.0,-999.0,49,-99.99,,---,-99.99,VWS V14.01,2013-09-04 18:48:00,
2013-09-04 11:53:00,79.3,59.1,-100.00,North,-999,-999.0,-999.0,50,-99.99,,---,-99.99,VWS V14.01,2013-09-04 18:53:00,
2013-09-04 11:58:00,79.5,59.3,-100.00,North,-999,-999.0,-999.0,50,-99.99,,---,-99.99,VWS V14.01,2013-09-04 18:58:00,
2013-09-04 12:03:00,79.9,59.0,-100.00,North,-999,-999.0,-999.0,49,-99.99,,---,-99.99,VWS V14.01,2013-09-04 19:03:00,
2013-09-04 12:08:00,80.1,59.2,-100.00,North,-999,-999.0,-999.0,49,-99.99,,---,-99.99,VWS V14.01,2013-09-04 19:08:00,
2013-09-04 12:13:00,80.2,59.4,-100.00,North,-999,-999.0,-999.0,49,-99.99,,---,-99.99,VWS V14.01,2013-09-04 19:13:00,
2013-09-04 12:18:00,80.4,59.0,-100.00,North,-999,-999.0,-999.0,48,-99.99,,---,-99.99,VWS V14.01,2013-09-04 19:18:00,
2013-09-04 12:23:00,80.4,59.0,-100.00,North,-999,-999.0,-999.0,48,-99.99,,---,-99.99,VWS V14.01,2013-09-04 19:23:00,
2013-09-04 12:28:00,80.4,58.4,-100.00,North,-999,-999.0,-999.0,47,-99.99,,---,-99.99,VWS V14.01,2013-09-04 19:28:00,
2013-09-04 12:33:00,80.6,58.5,-100.00,North,-999,-999.0,-999.0,47,-99.99,,---,-99.99,VWS V14.01,2013-09-04 19:33:00,
2013-09-04 12:38:00,80.8,58.7,-100.00,North,-999,-999.0,-999.0,47,-99.99,,---,-99.99,VWS V14.01,2013-09-04 19:38:00,
2013-09-04 12:43:00,81.0,58.3,-100.00,North,-999,-999.0,-999.0,46,-99.99,,---,-99.99,VWS V14.01,2013-09-04 19:43:00,
2013-09-04 12:48:00,81.0,58.3,-100.00,North,-999,-999.0,-999.0,46,-99.99,,---,-99.99,VWS V14.01,2013-09-04 19:48:00,
2013-09-04 12:53:00,81.0,58.3,-100.00,North,-999,-999.0,-999.0,46,-99.99,,---,-99.99,VWS V14.01,2013-09-04 19:53:00,
2013-09-04 12:58:00,81.1,58.4,-100.00,North,-999,-999.0,-999.0,46,-99.99,,---,-99.99,VWS V14.01,2013-09-04 19:58:00,
2013-09-04 13:03:00,81.3,58.6,-100.00,North,-999,-999.0,-999.0,46,-99.99,,---,-99.99,VWS V14.01,2013-09-04 20:03:00,
2013-09-04 13:08:00,81.3,58.6,-100.00,North,-999,-999.0,-999.0,46,-99.99,,---,-99.99,VWS V14.01,2013-09-04 20:08:00,
2013-09-04 13:13:00,81.3,58.6,-100.00,North,-999,-999.0,-999.0,46,-99.99,,---,-99.99,VWS V14.01,2013-09-04 20:13:00,
2013-09-04 13:18:00,81.3,58.0,-100.00,North,-999,-999.0,-999.0,45,-99.99,,---,-99.99,VWS V14.01,2013-09-04 20:18:00,
2013-09-04 13:23:00,81.3,58.0,-100.00,North,-999,-999.0,-999.0,45,-99.99,,---,-99.99,VWS V14.01,2013-09-04 20:23:00,
2013-09-04 13:28:00,81.3,58.0,-100.00,North,-999,-999.0,-999.0,45,-99.99,,---,-99.99,VWS V14.01,2013-09-04 20:28:00,
2013-09-04 13:33:00,81.3,58.0,-100.00,North,-999,-999.0,-999.0,45,-99.99,,---,-99.99,VWS V14.01,2013-09-04 20:33:00,
2013-09-04 13:38:00,81.3,58.0,-100.00,North,-999,-999.0,-999.0,45,-99.99,,---,-99.99,VWS V14.01,2013-09-04 20:38:00,
2013-09-04 13:43:00,81.5,58.1,-100.00,North,-999,-999.0,-999.0,45,-99.99,,---,-99.99,VWS V14.01,2013-09-04 20:43:00,
2013-09-04 13:48:00,81.7,58.3,-100.00,North,-999,-999.0,-999.0,45,-99.99,,---,-99.99,VWS V14.01,2013-09-04 20:48:00,
2013-09-04 13:53:00,81.5,57.5,-100.00,North,-999,-999.0,-999.0,44,-99.99,,---,-99.99,VWS V14.01,2013-09-04 20:53:00,
2013-09-04 13:58:00,81.7,57.7,-100.00,North,-999,-999.0,-999.0,44,-99.99,,---,-99.99,VWS V14.01,2013-09-04 20:58:00,
2013-09-04 14:03:00,81.7,57.7,-100.00,North,-999,-999.0,-999.0,44,-99.99,,---,-99.99,VWS V14.01,2013-09-04 21:03:00,
2013-09-04 14:08:00,81.7,57.7,-100.00,North,-999,-999.0,-999.0,44,-99.99,,---,-99.99,VWS V14.01,2013-09-04 21:08:00,
2013-09-04 14:13:00,81.5,57.5,-100.00,North,-999,-999.0,-999.0,44,-99.99,,---,-99.99,VWS V14.01,2013-09-04 21:13:00,
2013-09-04 14:18:00,81.5,57.5,-100.00,North,-999,-999.0,-999.0,44,-99.99,,---,-99.99,VWS V14.01,2013-09-04 21:18:00,
2013-09-04 14:23:00,81.5,57.5,-100.00,North,-999,-999.0,-999.0,44,-99.99,,---,-99.99,VWS V14.01,2013-09-04 21:23:00,
2013-09-04 14:28:00,81.3,56.7,-100.00,North,-999,-999.0,-999.0,43,-99.99,,---,-99.99,VWS V14.01,2013-09-04 21:28:00,
2013-09-04 14:33:00,81.3,57.3,-100.00,North,-999,-999.0,-999.0,44,-99.99,,---,-99.99,VWS V14.01,2013-09-04 21:33:00,
2013-09-04 14:38:00,81.5,57.5,-100.00,North,-999,-999.0,-999.0,44,-99.99,,---,-99.99,VWS V14.01,2013-09-04 21:38:00,
2013-09-04 14:43:00,81.3,56.7,-100.00,North,-999,-999.0,-999.0,43,-99.99,,---,-99.99,VWS V14.01,2013-09-04 21:43:00,
2013-09-04 14:48:00,81.3,56.7,-100.00,North,-999,-999.0,-999.0,43,-99.99,,---,-99.99,VWS V14.01,2013-09-04 21:48:00,
2013-09-04 14:53:00,81.3,56.7,-100.00,North,-999,-999.0,-999.0,43,-99.99,,---,-99.99,VWS V14.01,2013-09-04 21:53:00,
2013-09-04 14:58:00,81.5,56.9,-100.00,North,-999,-999.0,-999.0,43,-99.99,,---,-99.99,VWS V14.01,2013-09-04 21:58:00,
2013-09-04 15:03:00,81.5,56.9,-100.00,North,-999,-999.0,-999.0,43,-99.99,,---,-99.99,VWS V14.01,2013-09-04 22:03:00,
2013-09-04 15:42:00,80.8,56.2,-100.00,North,-999,-999.0,-999.0,43,-99.99,,---,-99.99,VWS V14.01,2013-09-04 22:42:00,
2013-09-04 15:47:00,80.8,56.2,-100.00,North,-999,-999.0,-999.0,43,-99.99,,---,-99.99,VWS V14.01,2013-09-04 22:47:00,
2013-09-04 15:52:00,80.4,55.9,-100.00,North,-999,-999.0,-999.0,43,-99.99,,---,-99.99,VWS V14.01,2013-09-04 22:52:00,
2013-09-04 15:57:00,80.2,55.7,-100.00,North,-999,-999.0,-999.0,43,-99.99,,---,-99.99,VWS V14.01,2013-09-04 22:57:00,
2013-09-04 16:02:00,80.4,55.9,-100.00,North,-999,-999.0,-999.0,43,-99.99,,---,-99.99,VWS V14.01,2013-09-04 23:02:00,
2013-09-04 16:07:00,80.2,55.7,-100.00,North,-999,-999.0,-999.0,43,-99.99,,---,-99.99,VWS V14.01,2013-09-04 23:07:00,
2013-09-04 16:12:00,80.1,55.6,-100.00,North,-999,-999.0,-999.0,43,-99.99,,---,-99.99,VWS V14.01,2013-09-04 23:12:00,
2013-09-04 16:17:00,79.7,55.2,-100.00,North,-999,-999.0,-999.0,43,-99.99,,---,-99.99,VWS V14.01,2013-09-04 23:17:00,
2013-09-04 16:22:00,79.5,55.1,-100.00,North,-999,-999.0,-999.0,43,-99.99,,---,-99.99,VWS V14.01,2013-09-04 23:22:00,
2013-09-04 16:27:00,79.5,55.7,-100.00,North,-999,-999.0,-999.0,44,-99.99,,---,-99.99,VWS V14.01,2013-09-04 23:27:00,
2013-09-04 16:32:00,79.3,55.6,-100.00,North,-999,-999.0,-999.0,44,-99.99,,---,-99.99,VWS V14.01,2013-09-04 23:32:00,
2013-09-04 16:37:00,79.3,54.9,-100.00,North,-999,-999.0,-999.0,43,-99.99,,---,-99.99,VWS V14.01,2013-09-04 23:37:00,
2013-09-04 16:42:00,79.2,54.8,-100.00,North,-999,-999.0,-999.0,43,-99.99,,---,-99.99,VWS V14.01,2013-09-04 23:42:00,
2013-09-04 16:47:00,79.0,54.6,-100.00,North,-999,-999.0,-999.0,43,-99.99,,---,-99.99,VWS V14.01,2013-09-04 23:47:00,
2013-09-04 16:52:00,78.6,54.9,-100.00,North,-999,-999.0,-999.0,44,-99.99,,---,-99.99,VWS V14.01,2013-09-04 23:52:00,
2013-09-04 16:57:00,78.4,54.7,-100.00,North,-999,-999.0,-999.0,44,-99.99,,---,-99.99,VWS V14.01,2013-09-04 23:57:00,
2013-09-04 17:02:00,78.4,54.7,-100.00,North,-999,-999.0,-999.0,44,-99.99,,---,-99.99,VWS V14.01,2013-09-05 00:02:00,
2013-09-04 17:07:00,78.3,54.6,-100.00,North,-999,-999.0,-999.0,44,-99.99,,---,-99.99,VWS V14.01,2013-09-05 00:07:00,
2013-09-04 17:12:00,78.1,54.4,-100.00,North,-999,-999.0,-999.0,44,-99.99,,---,-99.99,VWS V14.01,2013-09-05 00:12:00,
2013-09-04 17:17:00,77.7,54.1,-100.00,North,-999,-999.0,-999.0,44,-99.99,,---,-99.99,VWS V14.01,2013-09-05 00:17:00,
2013-09-04 17:22:00,77.4,53.8,-100.00,North,-999,-999.0,-999.0,44,-99.99,,---,-99.99,VWS V14.01,2013-09-05 00:22:00,
2013-09-04 17:27:00,77.0,53.4,-100.00,North,-999,-999.0,-999.0,44,-99.99,,---,-99.99,VWS V14.01,2013-09-05 00:27:00,
2013-09-04 17:32:00,77.0,53.4,-100.00,North,-999,-999.0,-999.0,44,-99.99,,---,-99.99,VWS V14.01,2013-09-05 00:32:00,
2013-09-04 17:37:00,76.6,53.7,-100.00,North,-999,-999.0,-999.0,45,-99.99,,---,-99.99,VWS V14.01,2013-09-05 00:37:00,
2013-09-04 17:42:00,76.6,53.7,-100.00,North,-999,-999.0,-999.0,45,-99.99,,---,-99.99,VWS V14.01,2013-09-05 00:42:00,
2013-09-04 17:47:00,76.5,53.6,-100.00,North,-999,-999.0,-999.0,45,-99.99,,---,-99.99,VWS V14.01,2013-09-05 00:47:00,
2013-09-04 17:52:00,76.3,53.4,-100.00,North,-999,-999.0,-999.0,45,-99.99,,---,-99.99,VWS V14.01,2013-09-05 00:52:00,
2013-09-04 17:57:00,75.9,53.1,-100.00,North,-999,-999.0,-999.0,45,-99.99,,---,-99.99,VWS V14.01,2013-09-05 00:57:00,
2013-09-04 18:02:00,75.6,52.8,-100.00,North,-999,-999.0,-999.0,45,-99.99,,---,-99.99,VWS V14.01,2013-09-05 01:02:00,
2013-09-04 18:07:00,75.6,52.8,-100.00,North,-999,-999.0,-999.0,45,-99.99,,---,-99.99,VWS V14.01,2013-09-05 01:07:00,
2013-09-04 18:12:00,75.4,52.6,-100.00,North,-999,-999.0,-999.0,45,-99.99,,---,-99.99,VWS V14.01,2013-09-05 01:12:00,
2013-09-04 18:17:00,75.0,52.9,-100.00,North,-999,-999.0,-999.0,46,-99.99,,---,-99.99,VWS V14.01,2013-09-05 01:17:00,
2013-09-04 18:22:00,74.8,52.7,-100.00,North,-999,-999.0,-999.0,46,-99.99,,---,-99.99,VWS V14.01,2013-09-05 01:22:00,
2013-09-04 18:27:00,74.7,52.5,-100.00,North,-999,-999.0,-999.0,46,-99.99,,---,-99.99,VWS V14.01,2013-09-05 01:27:00,
2013-09-04 18:32:00,74.5,53.0,-100.00,North,-999,-999.0,-999.0,47,-99.99,,---,-99.99,VWS V14.01,2013-09-05 01:32:00,
2013-09-04 18:37:00,74.3,52.8,-100.00,North,-999,-999.0,-999.0,47,-99.99,,---,-99.99,VWS V14.01,2013-09-05 01:37:00,
2013-09-04 18:42:00,73.9,52.5,-100.00,North,-999,-999.0,-999.0,47,-99.99,,---,-99.99,VWS V14.01,2013-09-05 01:42:00,
2013-09-04 18:47:00,73.8,52.3,-100.00,North,-999,-999.0,-999.0,47,-99.99,,---,-99.99,VWS V14.01,2013-09-05 01:47:00,
2013-09-04 18:52:00,73.6,52.7,-100.00,North,-999,-999.0,-999.0,48,-99.99,,---,-99.99,VWS V14.01,2013-09-05 01:52:00,
2013-09-04 18:57:00,73.6,52.7,-100.00,North,-999,-999.0,-999.0,48,-99.99,,---,-99.99,VWS V14.01,2013-09-05 01:57:00,
2013-09-04 19:02:00,73.4,52.5,-100.00,North,-999,-999.0,-999.0,48,-99.99,,---,-99.99,VWS V14.01,2013-09-05 02:02:00,
2013-09-04 19:07:00,73.2,52.9,-100.00,North,-999,-999.0,-999.0,49,-99.99,,---,-99.99,VWS V14.01,2013-09-05 02:07:00,
2013-09-04 19:12:00,72.9,52.6,-100.00,North,-999,-999.0,-999.0,49,-99.99,,---,-99.99,VWS V14.01,2013-09-05 02:12:00,
2013-09-04 19:17:00,72.7,52.4,-100.00,North,-999,-999.0,-999.0,49,-99.99,,---,-99.99,VWS V14.01,2013-09-05 02:17:00,
2013-09-04 19:23:00,72.5,52.3,-100.00,North,-999,-999.0,-999.0,49,-99.99,,---,-99.99,VWS V14.01,2013-09-05 02:23:00,
2013-09-04 19:27:00,72.3,52.7,-100.00,North,-999,-999.0,-999.0,50,-99.99,,---,-99.99,VWS V14.01,2013-09-05 02:27:00,
2013-09-04 19:32:00,72.0,52.3,-100.00,North,-999,-999.0,-999.0,50,-99.99,,---,-99.99,VWS V14.01,2013-09-05 02:32:00,
2013-09-04 19:37:00,72.0,52.3,-100.00,North,-999,-999.0,-999.0,50,-99.99,,---,-99.99,VWS V14.01,2013-09-05 02:37:00,
2013-09-04 19:43:00,71.6,52.5,-100.00,North,-999,-999.0,-999.0,51,-99.99,,---,-99.99,VWS V14.01,2013-09-05 02:43:00,
2013-09-04 19:48:00,71.4,52.9,-100.00,North,-999,-999.0,-999.0,52,-99.99,,---,-99.99,VWS V14.01,2013-09-05 02:48:00,
2013-09-04 19:53:00,71.1,52.6,-100.00,North,-999,-999.0,-999.0,52,-99.99,,---,-99.99,VWS V14.01,2013-09-05 02:53:00,
2013-09-04 19:58:00,70.7,52.8,-100.00,North,-999,-999.0,-999.0,53,-99.99,,---,-99.99,VWS V14.01,2013-09-05 02:58:00,
2013-09-04 20:03:00,70.5,52.6,-100.00,North,-999,-999.0,-999.0,53,-99.99,,---,-99.99,VWS V14.01,2013-09-05 03:03:00,
2013-09-04 20:08:00,70.3,52.4,-100.00,North,-999,-999.0,-999.0,53,-99.99,,---,-99.99,VWS V14.01,2013-09-05 03:08:00,
2013-09-04 20:13:00,70.2,52.8,-100.00,North,-999,-999.0,-999.0,54,-99.99,,---,-99.99,VWS V14.01,2013-09-05 03:13:00,
2013-09-04 20:18:00,70.0,52.6,-100.00,North,-999,-999.0,-999.0,54,-99.99,,---,-99.99,VWS V14.01,2013-09-05 03:18:00,
2013-09-04 20:23:00,69.8,52.4,-100.00,North,-999,-999.0,-999.0,54,-99.99,,---,-99.99,VWS V14.01,2013-09-05 03:23:00,
2013-09-04 20:28:00,69.6,52.8,-100.00,North,-999,-999.0,-999.0,55,-99.99,,---,-99.99,VWS V14.01,2013-09-05 03:28:00,
2013-09-04 20:33:00,69.4,52.6,-100.00,North,-999,-999.0,-999.0,55,-99.99,,---,-99.99,VWS V14.01,2013-09-05 03:33:00,
2013-09-04 20:38:00,69.3,52.9,-100.00,North,-999,-999.0,-999.0,56,-99.99,,---,-99.99,VWS V14.01,2013-09-05 03:38:00,
2013-09-04 20:43:00,69.1,52.7,-100.00,North,-999,-999.0,-999.0,56,-99.99,,---,-99.99,VWS V14.01,2013-09-05 03:43:00,
2013-09-04 20:48:00,69.1,53.2,-100.00,North,-999,-999.0,-999.0,57,-99.99,,---,-99.99,VWS V14.01,2013-09-05 03:48:00,
2013-09-04 20:53:00,69.1,53.2,-100.00,North,-999,-999.0,-999.0,57,-99.99,,---,-99.99,VWS V14.01,2013-09-05 03:53:00,
2013-09-04 20:58:00,69.1,53.2,-100.00,North,-999,-999.0,-999.0,57,-99.99,,---,-99.99,VWS V14.01,2013-09-05 03:58:00,
2013-09-04 21:03:00,69.1,53.2,-100.00,North,-999,-999.0,-999.0,57,-99.99,,---,-99.99,VWS V14.01,2013-09-05 04:03:00,
2013-09-04 21:22:00,69.1,53.7,-100.00,North,-999,-999.0,-999.0,58,-99.99,,---,-99.99,VWS V14.01,2013-09-05 04:22:00,
2013-09-04 21:24:00,69.1,53.7,-100.00,North,-999,-999.0,-999.0,58,-99.99,,---,-99.99,VWS V14.01,2013-09-05 04:24:00,
2013-09-04 21:27:00,69.1,53.7,-100.00,North,-999,-999.0,-999.0,58,-99.99,,---,-99.99,VWS V14.01,2013-09-05 04:27:00,
2013-09-04 21:32:00,69.1,53.7,-100.00,North,-999,-999.0,-999.0,58,-99.99,,---,-99.99,VWS V14.01,2013-09-05 04:32:00,
2013-09-04 21:37:00,69.1,53.7,-100.00,North,-999,-999.0,-999.0,58,-99.99,,---,-99.99,VWS V14.01,2013-09-05 04:37:00,
2013-09-04 21:42:00,69.1,53.7,-100.00,North,-999,-999.0,-999.0,58,-99.99,,---,-99.99,VWS V14.01,2013-09-05 04:42:00,
2013-09-04 21:47:00,68.9,53.5,-100.00,North,-999,-999.0,-999.0,58,-99.99,,---,-99.99,VWS V14.01,2013-09-05 04:47:00,
2013-09-04 21:52:00,68.7,53.8,-100.00,North,-999,-999.0,-999.0,59,-99.99,,---,-99.99,VWS V14.01,2013-09-05 04:52:00,
2013-09-04 21:57:00,68.7,53.8,-100.00,North,-999,-999.0,-999.0,59,-99.99,,---,-99.99,VWS V14.01,2013-09-05 04:57:00,
2013-09-04 22:02:00,68.5,53.7,-100.00,North,-999,-999.0,-999.0,59,-99.99,,---,-99.99,VWS V14.01,2013-09-05 05:02:00,
2013-09-04 22:07:00,68.5,53.7,-100.00,North,-999,-999.0,-999.0,59,-99.99,,---,-99.99,VWS V14.01,2013-09-05 05:07:00,
2013-09-04 22:12:00,68.5,53.7,-100.00,North,-999,-999.0,-999.0,59,-99.99,,---,-99.99,VWS V14.01,2013-09-05 05:12:00,
2013-09-04 22:17:00,68.4,53.5,-100.00,North,-999,-999.0,-999.0,59,-99.99,,---,-99.99,VWS V14.01,2013-09-05 05:17:00,
2013-09-04 22:22:00,68.2,53.8,-100.00,North,-999,-999.0,-999.0,60,-99.99,,---,-99.99,VWS V14.01,2013-09-05 05:22:00,
2013-09-04 22:27:00,68.0,53.6,-100.00,North,-999,-999.0,-999.0,60,-99.99,,---,-99.99,VWS V14.01,2013-09-05 05:27:00,
2013-09-04 22:32:00,68.0,53.6,-100.00,North,-999,-999.0,-999.0,60,-99.99,,---,-99.99,VWS V14.01,2013-09-05 05:32:00,
2013-09-04 22:37:00,68.0,53.6,-100.00,North,-999,-999.0,-999.0,60,-99.99,,---,-99.99,VWS V14.01,2013-09-05 05:37:00,
2013-09-04 22:42:00,68.0,53.6,-100.00,North,-999,-999.0,-999.0,60,-99.99,,---,-99.99,VWS V14.01,2013-09-05 05:42:00,
2013-09-04 22:47:00,68.2,53.8,-100.00,North,-999,-999.0,-999.0,60,-99.99,,---,-99.99,VWS V14.01,2013-09-05 05:47:00,
2013-09-04 22:52:00,68.0,53.6,-100.00,North,-999,-999.0,-999.0,60,-99.99,,---,-99.99,VWS V14.01,2013-09-05 05:52:00,
2013-09-04 22:57:00,68.0,53.6,-100.00,North,-999,-999.0,-999.0,60,-99.99,,---,-99.99,VWS V14.01,2013-09-05 05:57:00,
2013-09-04 23:02:00,67.8,53.9,-100.00,North,-999,-999.0,-999.0,61,-99.99,,---,-99.99,VWS V14.01,2013-09-05 06:02:00,
2013-09-04 23:07:00,67.8,53.9,-100.00,North,-999,-999.0,-999.0,61,-99.99,,---,-99.99,VWS V14.01,2013-09-05 06:07:00,
2013-09-04 23:12:00,67.6,53.7,-100.00,North,-999,-999.0,-999.0,61,-99.99,,---,-99.99,VWS V14.01,2013-09-05 06:12:00,
2013-09-04 23:17:00,67.6,53.7,-100.00,North,-999,-999.0,-999.0,61,-99.99,,---,-99.99,VWS V14.01,2013-09-05 06:17:00,
2013-09-04 23:22:00,67.5,53.6,-100.00,North,-999,-999.0,-999.0,61,-99.99,,---,-99.99,VWS V14.01,2013-09-05 06:22:00,
2013-09-04 23:27:00,67.3,53.8,-100.00,North,-999,-999.0,-999.0,62,-99.99,,---,-99.99,VWS V14.01,2013-09-05 06:27:00,
2013-09-04 23:32:00,67.3,53.8,-100.00,North,-999,-999.0,-999.0,62,-99.99,,---,-99.99,VWS V14.01,2013-09-05 06:32:00,
2013-09-04 23:37:00,67.1,53.7,-100.00,North,-999,-999.0,-999.0,62,-99.99,,---,-99.99,VWS V14.01,2013-09-05 06:37:00,
2013-09-04 23:42:00,67.3,53.8,-100.00,North,-999,-999.0,-999.0,62,-99.99,,---,-99.99,VWS V14.01,2013-09-05 06:42:00,
2013-09-04 23:47:00,67.1,53.7,-100.00,North,-999,-999.0,-999.0,62,-99.99,,---,-99.99,VWS V14.01,2013-09-05 06:47:00,
2013-09-04 23:52:00,67.1,53.7,-100.00,North,-999,-999.0,-999.0,62,-99.99,,---,-99.99,VWS V14.01,2013-09-05 06:52:00,
2013-09-04 23:57:00,67.3,53.8,-100.00,North,-999,-999.0,-999.0,62,-99.99,,---,-99.99,VWS V14.01,2013-09-05 06:57:00,